This is the latest recevied weather packets stored in our database for station/object VK6WB. If no packets are shown the sender has not sent any weather packets the latest 10 day(s).
| Time | Temp. | Humidity | Pressure | Rain* | Wind** | Luminosity | Snow |
|---|---|---|---|---|---|---|---|
| 1777681204 | 11.67° C | 16% | 1022.5 hPa | 0 mm | - | 10 W/m² | - |
| 1777680604 | 11.67° C | 14% | 1022.3 hPa | 0 mm | - | 10 W/m² | - |
| 1777680004 | 11.11° C | 14% | 1022.3 hPa | 0 mm | - | 10 W/m² | - |
| 1777679404 | 10.56° C | 16% | 1022.2 hPa | 0 mm | - | 10 W/m² | - |
| 1777678804 | 9.44° C | 21% | 1022.1 hPa | 0 mm | - | 10 W/m² | - |
| 1777678204 | 8.33° C | 28% | 1022 hPa | 0 mm | - | 62 W/m² | - |
| 1777677604 | 7.78° C | 35% | 1022 hPa | 0 mm | - | 62 W/m² | - |
| 1777677004 | 6.67° C | 38% | 1022.1 hPa | 0 mm | - | 113 W/m² | - |
| 1777676404 | 6.11° C | 42% | 1021.9 hPa | 0 mm | - | 113 W/m² | - |
| 1777675803 | 6.11° C | 45% | 1021.9 hPa | 0 mm | - | 165 W/m² | - |
| 1777675204 | 6.67° C | 46% | 1021.8 hPa | 0 mm | - | 165 W/m² | - |
| 1777674604 | 6.67° C | 48% | 1021.5 hPa | 0 mm | - | 217 W/m² | - |
| 1777674005 | 6.67° C | 49% | 1021.5 hPa | 0 mm | - | 269 W/m² | - |
| 1777673403 | 6.67° C | 49% | 1021.4 hPa | 0 mm | - | 269 W/m² | - |
| 1777672804 | 6.67° C | 50% | 1021.5 hPa | 0 mm | - | 320 W/m² | - |
| 1777672204 | 7.22° C | 50% | 1021.4 hPa | 0 mm | - | 320 W/m² | - |
| 1777671604 | 7.22° C | 50% | 1021.2 hPa | 0 mm | - | 372 W/m² | - |
| 1777671004 | 7.78° C | 51% | 1021.1 hPa | 0 mm | - | 424 W/m² | - |
| 1777670403 | 7.78° C | 52% | 1021.1 hPa | 0 mm | - | 476 W/m² | - |
| 1777669804 | 7.78° C | 53% | 1021.1 hPa | 0 mm | - | 476 W/m² | - |
| 1777669204 | 7.78° C | 54% | 1020.9 hPa | 0 mm | - | 528 W/m² | - |
| 1777668603 | 7.78° C | 55% | 1021 hPa | 0 mm | - | 580 W/m² | - |
| 1777668004 | 7.78° C | 54% | 1020.9 hPa | 0 mm | - | 580 W/m² | - |
| 1777667404 | 7.78° C | 56% | 1021.1 hPa | 0 mm | - | 631 W/m² | - |
| 1777666803 | 7.78° C | 56% | 1020.9 hPa | 0 mm | - | 631 W/m² | - |
* Rain latest hour (hover to see other rain measurements)
** Current wind speed in m/s (hover to see current wind gust speed)